Time;durP1;ratioP1;P1;durP2;ratioP2;P2;SDS_P1;SDS_P2;PMS_P1;PMS_P2;Temp;Humidity;BMP_temperature;BMP_pressure;BME280_temperature;BME280_humidity;BME280_pressure;Samples;Min_cycle;Max_cycle;Signal;HPM_P1;HPM_P2
2022/08/15 00:02:17;;;;;;;35.47;33.70;;;24.00;59.10;;;;;;5046443;28;21013;-67
2022/08/15 00:04:44;;;;;;;35.03;33.23;;;24.00;59.30;;;;;;5047875;28;20485;-67
2022/08/15 00:07:12;;;;;;;34.60;32.80;;;23.90;59.50;;;;;;5042729;28;20464;-67
2022/08/15 00:09:39;;;;;;;39.17;37.20;;;23.90;59.50;;;;;;5039493;28;20501;-67
2022/08/15 00:12:07;;;;;;;36.30;34.50;;;23.90;59.60;;;;;;5045763;28;20558;-67
2022/08/15 00:14:36;;;;;;;36.20;34.50;;;23.80;59.70;;;;;;5043609;28;20459;-67
2022/08/15 00:17:09;;;;;;;35.60;34.03;;;23.80;59.50;;;;;;5046508;28;20995;-66
2022/08/15 00:19:38;;;;;;;36.07;34.47;;;23.80;59.70;;;;;;5047253;28;20943;-67
2022/08/15 00:22:09;;;;;;;36.70;34.90;;;23.80;59.90;;;;;;5041999;28;20477;-67
2022/08/15 00:24:38;;;;;;;35.30;33.60;;;23.70;59.90;;;;;;5040389;28;20480;-66
2022/08/15 00:27:07;;;;;;;34.40;32.87;;;23.70;59.60;;;;;;5045189;28;20497;-67
2022/08/15 00:29:34;;;;;;;35.70;33.70;;;23.70;60.00;;;;;;5038971;28;20512;-67
2022/08/15 00:32:03;;;;;;;35.13;33.33;;;23.70;60.40;;;;;;5040437;28;20608;-68
2022/08/15 00:34:30;;;;;;;34.40;32.43;;;23.70;60.40;;;;;;5046141;28;20460;-69
2022/08/15 00:36:57;;;;;;;34.50;32.90;;;23.70;60.50;;;;;;5044010;28;20505;-69
2022/08/15 00:39:25;;;;;;;35.23;33.53;;;23.80;60.90;;;;;;5047559;28;20454;-69
2022/08/15 00:41:54;;;;;;;35.23;33.53;;;23.70;60.80;;;;;;5046132;28;20840;-69
2022/08/15 00:44:24;;;;;;;36.47;34.57;;;23.80;60.10;;;;;;5046916;28;20502;-69
2022/08/15 00:46:54;;;;;;;35.97;34.23;;;23.80;60.00;;;;;;5047732;28;20579;-69
2022/08/15 00:49:22;;;;;;;36.07;34.30;;;23.80;60.00;;;;;;5047511;28;20557;-67
2022/08/15 00:51:52;;;;;;;35.90;33.90;;;23.90;59.90;;;;;;5042101;28;20492;-67
2022/08/15 00:54:24;;;;;;;34.10;32.60;;;23.90;59.90;;;;;;5046543;28;20558;-67
2022/08/15 00:56:55;;;;;;;35.90;34.20;;;23.80;60.10;;;;;;5042864;28;20464;-67
2022/08/15 00:59:25;;;;;;;35.30;33.37;;;23.80;60.10;;;;;;5043210;28;20462;-67
2022/08/15 01:01:54;;;;;;;35.00;33.30;;;23.80;60.10;;;;;;5040132;28;21007;-67
2022/08/15 01:04:21;;;;;;;35.73;34.10;;;23.80;60.20;;;;;;5035497;28;20454;-67
2022/08/15 01:06:49;;;;;;;34.07;32.27;;;23.80;60.30;;;;;;5046226;28;20568;-67
2022/08/15 01:09:18;;;;;;;35.50;33.90;;;23.70;60.50;;;;;;5032398;28;20462;-67
2022/08/15 01:11:51;;;;;;;36.90;35.13;;;23.70;60.50;;;;;;5036303;28;20556;-67
2022/08/15 01:14:20;;;;;;;37.10;35.23;;;23.70;60.70;;;;;;5037299;28;20462;-67
2022/08/15 01:16:47;;;;;;;35.33;33.53;;;23.70;60.70;;;;;;5037599;28;20545;-67
2022/08/15 01:19:19;;;;;;;35.43;33.63;;;23.70;60.90;;;;;;5040670;28;20496;-67
2022/08/15 01:22:03;;;;;;;34.60;33.00;;;23.70;61.00;;;;;;5045589;28;21051;-67
2022/08/15 01:24:45;;;;;;;34.80;33.17;;;23.60;61.00;;;;;;5048119;28;20460;-67
2022/08/15 01:27:13;;;;;;;34.50;32.90;;;23.70;61.00;;;;;;5041914;28;20473;-67
2022/08/15 01:29:40;;;;;;;36.10;34.30;;;23.70;61.10;;;;;;5047404;28;20580;-67
2022/08/15 01:32:07;;;;;;;35.33;33.63;;;23.70;61.20;;;;;;5043973;28;20483;-67
2022/08/15 01:34:34;;;;;;;36.57;34.70;;;23.70;61.20;;;;;;5043273;28;20541;-67
2022/08/15 01:37:02;;;;;;;36.73;35.03;;;23.60;61.40;;;;;;5043330;28;20536;-69
2022/08/15 01:39:37;;;;;;;37.07;35.27;;;23.70;61.30;;;;;;5046565;28;20458;-69
2022/08/15 01:42:11;;;;;;;37.60;35.27;;;23.70;61.60;;;;;;5041257;28;20794;-69
2022/08/15 01:44:43;;;;;;;36.23;34.53;;;23.60;61.80;;;;;;5044957;28;20964;-69
2022/08/15 01:47:17;;;;;;;35.30;33.60;;;23.60;61.90;;;;;;5037042;28;20842;-69
2022/08/15 01:50:01;;;;;;;35.30;33.60;;;23.70;62.00;;;;;;5040554;28;20488;-69
2022/08/15 01:52:35;;;;;;;35.33;33.63;;;23.70;62.10;;;;;;5046302;28;20544;-68
2022/08/15 01:55:04;;;;;;;37.37;35.20;;;23.60;62.90;;;;;;5037188;28;20557;-69
2022/08/15 01:57:33;;;;;;;36.57;34.80;;;23.50;63.50;;;;;;5047091;28;20541;-69
2022/08/15 02:00:00;;;;;;;36.43;34.63;;;23.50;63.60;;;;;;5050501;28;21022;-69
2022/08/15 02:02:28;;;;;;;35.33;33.40;;;23.50;64.00;;;;;;5042410;28;20645;-70
2022/08/15 02:04:56;;;;;;;35.63;34.03;;;23.50;64.30;;;;;;5043629;28;20461;-70
2022/08/15 02:07:28;;;;;;;37.80;35.80;;;23.50;64.30;;;;;;5049834;28;20451;-71
2022/08/15 02:09:56;;;;;;;37.87;36.07;;;23.60;64.40;;;;;;5039295;28;20920;-69
2022/08/15 02:12:26;;;;;;;36.53;34.57;;;23.50;64.70;;;;;;5045960;28;20816;-71
2022/08/15 02:14:55;;;;;;;36.17;34.20;;;23.50;65.00;;;;;;5041618;28;21017;-68
2022/08/15 02:17:22;;;;;;;35.83;34.13;;;23.50;65.10;;;;;;5048233;28;20456;-68
2022/08/15 02:19:51;;;;;;;37.60;35.60;;;23.50;64.90;;;;;;5046487;28;20826;-68
2022/08/15 02:22:20;;;;;;;36.40;34.60;;;23.50;65.10;;;;;;5050400;28;20546;-68
2022/08/15 02:24:47;;;;;;;38.70;36.80;;;23.50;65.50;;;;;;5034668;28;20659;-68
2022/08/15 02:27:15;;;;;;;36.47;34.57;;;23.40;65.60;;;;;;5049094;28;20663;-69
2022/08/15 02:29:43;;;;;;;40.20;38.30;;;23.50;65.50;;;;;;5043877;28;20547;-68
2022/08/15 02:32:14;;;;;;;38.90;37.00;;;23.50;65.70;;;;;;5048014;28;20953;-68
2022/08/15 02:34:43;;;;;;;38.57;36.07;;;23.40;65.80;;;;;;5040249;28;20546;-68
2022/08/15 02:37:18;;;;;;;36.27;34.67;;;23.30;65.90;;;;;;5047633;28;20543;-68
2022/08/15 02:39:46;;;;;;;41.00;39.00;;;23.30;66.20;;;;;;5046415;28;20459;-69
2022/08/15 02:42:14;;;;;;;44.30;41.67;;;23.30;66.30;;;;;;5047541;28;20578;-69
2022/08/15 02:44:41;;;;;;;42.63;40.43;;;23.30;66.10;;;;;;5047367;28;20463;-69
2022/08/15 02:47:13;;;;;;;37.70;35.90;;;23.30;66.40;;;;;;5043026;28;20460;-69
2022/08/15 02:49:40;;;;;;;35.30;33.53;;;23.20;66.50;;;;;;5041340;28;20838;-69
2022/08/15 02:52:08;;;;;;;45.57;43.37;;;23.20;66.60;;;;;;5048755;28;20471;-69
2022/08/15 02:54:35;;;;;;;35.97;34.20;;;23.20;66.40;;;;;;5042679;28;20460;-69
2022/08/15 02:57:02;;;;;;;37.37;35.67;;;23.30;66.20;;;;;;5043879;28;20459;-69
2022/08/15 02:59:30;;;;;;;44.80;42.60;;;23.30;66.60;;;;;;5040478;28;20556;-69
2022/08/15 03:01:58;;;;;;;37.93;36.10;;;23.30;66.60;;;;;;5042762;28;20889;-69
2022/08/15 03:04:30;;;;;;;39.30;37.50;;;23.30;66.80;;;;;;5035228;28;20559;-68
2022/08/15 03:06:57;;;;;;;38.10;36.40;;;23.30;67.00;;;;;;5045811;28;21217;-68
2022/08/15 03:09:24;;;;;;;47.93;45.70;;;23.20;67.20;;;;;;5043330;28;20833;-69
2022/08/15 03:11:51;;;;;;;45.97;43.60;;;23.30;67.00;;;;;;5039144;28;20564;-69
2022/08/15 03:14:21;;;;;;;46.17;43.90;;;23.30;67.20;;;;;;5044378;28;20539;-68
2022/08/15 03:16:49;;;;;;;50.80;48.00;;;23.20;67.30;;;;;;5046897;28;20455;-68
2022/08/15 03:19:19;;;;;;;39.40;37.53;;;23.20;67.50;;;;;;5044360;28;20977;-68
2022/08/15 03:21:49;;;;;;;40.30;38.00;;;23.10;67.70;;;;;;5046810;28;20479;-69
2022/08/15 03:24:18;;;;;;;39.17;37.20;;;23.10;67.80;;;;;;5046355;28;20466;-69
2022/08/15 03:26:46;;;;;;;56.47;53.67;;;23.10;67.70;;;;;;5046503;28;20451;-69
2022/08/15 03:29:15;;;;;;;42.13;40.07;;;23.10;67.60;;;;;;5039200;28;20506;-69
2022/08/15 03:31:42;;;;;;;57.40;54.50;;;23.00;67.90;;;;;;5039579;28;20476;-69
2022/08/15 03:34:10;;;;;;;63.50;60.40;;;23.00;68.10;;;;;;5041265;28;20513;-69
2022/08/15 03:36:37;;;;;;;34.70;33.00;;;23.00;68.00;;;;;;5045894;28;20478;-69
2022/08/15 03:39:06;;;;;;;59.47;56.57;;;23.00;68.00;;;;;;5041705;28;20549;-68
2022/08/15 03:41:32;;;;;;;38.17;36.30;;;23.10;67.80;;;;;;5041037;28;21135;-69
2022/08/15 03:43:59;;;;;;;47.50;45.20;;;23.00;68.30;;;;;;5042186;28;21012;-69
2022/08/15 03:46:27;;;;;;;38.00;36.30;;;23.10;68.50;;;;;;5047150;28;20549;-70
2022/08/15 03:48:57;;;;;;;39.87;37.87;;;23.10;68.90;;;;;;5042542;28;20894;-68
2022/08/15 03:51:26;;;;;;;43.03;40.93;;;23.10;69.40;;;;;;5038805;28;20476;-69
2022/08/15 03:53:57;;;;;;;32.77;31.17;;;23.00;70.00;;;;;;5041797;28;20475;-68
2022/08/15 03:56:28;;;;;;;34.70;32.97;;;22.80;70.30;;;;;;5048766;28;20521;-69
2022/08/15 03:58:57;;;;;;;48.17;45.67;;;22.70;70.80;;;;;;5043353;28;20949;-69
2022/08/15 04:01:31;;;;;;;43.70;41.70;;;22.70;71.10;;;;;;5046657;28;20566;-68
2022/08/15 04:03:58;;;;;;;44.90;42.63;;;22.70;70.50;;;;;;5046289;28;20584;-69
2022/08/15 04:06:29;;;;;;;39.53;37.87;;;22.70;70.90;;;;;;5048387;28;20957;-69
2022/08/15 04:08:57;;;;;;;42.57;40.57;;;22.70;71.10;;;;;;5038047;28;20614;-68
2022/08/15 04:11:29;;;;;;;45.93;43.60;;;22.60;71.40;;;;;;5043522;28;20475;-69
2022/08/15 04:13:56;;;;;;;36.67;35.07;;;22.60;71.50;;;;;;5043652;28;20471;-69
2022/08/15 04:16:23;;;;;;;51.20;48.60;;;22.60;71.50;;;;;;5046796;28;20491;-69
2022/08/15 04:18:51;;;;;;;35.93;34.23;;;22.60;71.70;;;;;;5039454;28;20491;-68
2022/08/15 04:21:18;;;;;;;51.80;49.30;;;22.60;71.10;;;;;;5047405;28;20511;-69
2022/08/15 04:23:47;;;;;;;45.40;43.37;;;22.60;71.30;;;;;;5046768;28;21024;-68
2022/08/15 04:26:15;;;;;;;47.97;45.73;;;22.50;71.30;;;;;;5048924;28;20452;-69
2022/08/15 04:28:43;;;;;;;38.10;36.50;;;22.50;71.40;;;;;;5038950;28;20500;-68
2022/08/15 04:31:12;;;;;;;42.20;40.10;;;22.60;70.80;;;;;;5043292;28;20487;-70
2022/08/15 04:33:39;;;;;;;38.97;37.27;;;22.50;71.00;;;;;;5043780;28;20494;-70
2022/08/15 04:36:09;;;;;;;61.07;58.07;;;22.60;70.50;;;;;;5047145;28;21040;-70
2022/08/15 04:38:37;;;;;;;39.37;37.73;;;22.60;70.10;;;;;;5046412;28;20509;-69
2022/08/15 04:41:05;;;;;;;36.33;34.73;;;22.60;70.00;;;;;;5040079;28;20994;-69
2022/08/15 04:43:33;;;;;;;56.87;54.17;;;22.50;70.00;;;;;;5041111;28;20455;-70
2022/08/15 04:46:01;;;;;;;56.03;53.23;;;22.50;69.90;;;;;;5033774;28;20739;-73
2022/08/15 04:48:29;;;;;;;45.80;43.60;;;22.50;70.00;;;;;;5037856;28;21030;-72
2022/08/15 04:50:58;;;;;;;47.73;45.63;;;22.50;70.10;;;;;;5046891;28;20479;-69
2022/08/15 04:53:28;;;;;;;37.03;35.43;;;22.60;70.10;;;;;;5041242;28;20582;-69
2022/08/15 04:55:56;;;;;;;43.30;41.27;;;22.50;70.20;;;;;;5034964;28;20460;-69
2022/08/15 04:58:23;;;;;;;40.63;38.67;;;22.60;70.30;;;;;;5042596;28;20791;-68
2022/08/15 05:00:56;;;;;;;45.27;43.20;;;22.50;70.70;;;;;;5046659;28;20471;-68
2022/08/15 05:03:24;;;;;;;53.53;50.87;;;22.60;70.50;;;;;;5042349;28;20593;-68
2022/08/15 05:05:53;;;;;;;36.40;34.80;;;22.60;70.60;;;;;;5046547;28;20459;-70
2022/08/15 05:08:21;;;;;;;34.77;33.20;;;22.50;70.80;;;;;;5046125;28;20543;-70
2022/08/15 05:10:54;;;;;;;36.47;34.73;;;22.50;70.90;;;;;;5045407;28;20567;-73
2022/08/15 05:13:25;;;;;;;38.00;36.20;;;22.50;70.90;;;;;;5039321;28;21692;-73
2022/08/15 05:15:53;;;;;;;49.43;47.03;;;22.50;71.00;;;;;;5033218;28;20950;-69
2022/08/15 05:18:21;;;;;;;47.70;45.30;;;22.40;71.00;;;;;;5037203;28;20579;-69
2022/08/15 05:20:49;;;;;;;53.17;50.57;;;22.50;70.80;;;;;;5042677;28;20578;-69
2022/08/15 05:23:18;;;;;;;49.23;46.77;;;22.50;70.90;;;;;;5039026;28;20563;-69
2022/08/15 05:25:47;;;;;;;35.87;34.17;;;22.50;71.10;;;;;;5042579;28;20633;-70
2022/08/15 05:28:14;;;;;;;35.93;34.20;;;22.50;70.50;;;;;;5045277;28;21132;-69
2022/08/15 05:30:42;;;;;;;37.00;35.30;;;22.60;70.60;;;;;;5043450;28;20480;-69
2022/08/15 05:33:12;;;;;;;42.10;40.13;;;22.60;70.40;;;;;;5047388;28;20478;-72
2022/08/15 05:35:42;;;;;;;37.90;36.10;;;22.60;70.10;;;;;;5039483;28;20558;-70
2022/08/15 05:38:17;;;;;;;39.60;37.57;;;22.60;70.00;;;;;;5045256;28;20984;-69
2022/08/15 05:40:51;;;;;;;56.27;53.53;;;22.70;69.70;;;;;;5045901;28;20467;-70
2022/08/15 05:43:31;;;;;;;46.60;44.27;;;22.70;70.30;;;;;;5048933;28;20451;-70
2022/08/15 05:46:04;;;;;;;55.03;52.43;;;22.70;70.40;;;;;;5042436;28;20458;-70
2022/08/15 05:48:33;;;;;;;35.93;34.03;;;22.70;70.90;;;;;;5047941;28;20983;-70
2022/08/15 05:51:09;;;;;;;38.53;36.73;;;22.70;71.10;;;;;;5039538;28;20558;-70
2022/08/15 05:53:56;;;;;;;42.43;40.53;;;22.70;71.20;;;;;;5039828;28;20579;-70
2022/08/15 05:56:45;;;;;;;46.30;44.20;;;22.70;70.80;;;;;;5042703;28;20890;-70
2022/08/15 05:59:15;;;;;;;40.28;38.38;;;22.70;70.60;;;;;;5043750;28;21264;-70
2022/08/15 06:01:46;;;;;;;38.10;36.30;;;22.80;70.60;;;;;;5037524;28;20611;-70
2022/08/15 06:04:22;;;;;;;41.40;39.30;;;22.60;70.90;;;;;;5039471;28;20899;-72
2022/08/15 06:06:50;;;;;;;46.53;44.43;;;22.70;70.70;;;;;;5045334;28;20494;-68
2022/08/15 06:09:41;;;;;;;48.20;45.83;;;22.70;70.60;;;;;;5041821;28;20550;-70
2022/08/15 06:12:12;;;;;;;38.47;36.77;;;22.60;70.50;;;;;;5040552;28;20491;-70
2022/08/15 06:14:43;;;;;;;41.07;39.37;;;22.60;70.60;;;;;;5048081;28;20539;-70
2022/08/15 06:17:15;;;;;;;41.97;39.97;;;22.60;70.70;;;;;;5038007;28;20460;-69
2022/08/15 06:19:46;;;;;;;47.57;45.30;;;22.60;70.50;;;;;;5049257;28;20541;-69
2022/08/15 06:22:26;;;;;;;47.43;45.27;;;22.60;70.60;;;;;;5036849;28;20546;-69
2022/08/15 06:25:03;;;;;;;54.30;51.80;;;22.60;72.00;;;;;;5043861;28;20460;-70
2022/08/15 06:27:38;;;;;;;42.40;40.60;;;22.70;71.00;;;;;;5044950;28;20467;-68
2022/08/15 06:30:08;;;;;;;40.97;39.07;;;22.80;71.10;;;;;;5044670;28;20999;-68
2022/08/15 06:32:44;;;;;;;47.93;45.70;;;22.70;70.60;;;;;;5043452;28;20572;-68
2022/08/15 06:35:20;;;;;;;59.00;55.97;;;22.60;71.20;;;;;;5033309;28;20573;-71
2022/08/15 06:38:02;;;;;;;43.60;41.63;;;22.60;70.90;;;;;;5046553;28;20455;-69
2022/08/15 06:40:38;;;;;;;37.33;35.73;;;22.80;70.40;;;;;;5042230;28;20881;-69
2022/08/15 06:43:10;;;;;;;55.33;52.53;;;22.90;70.50;;;;;;5048575;28;20538;-69
2022/08/15 06:45:41;;;;;;;52.83;50.23;;;23.00;70.20;;;;;;5035399;28;20470;-69
2022/08/15 06:48:11;;;;;;;42.13;40.23;;;22.90;70.00;;;;;;5044975;28;20558;-68
2022/08/15 06:50:46;;;;;;;36.27;34.70;;;23.00;69.20;;;;;;5040955;28;20483;-69
2022/08/15 06:53:19;;;;;;;52.80;49.90;;;23.30;68.60;;;;;;5041871;28;20518;-69
2022/08/15 06:55:53;;;;;;;51.17;48.87;;;23.40;68.20;;;;;;5038185;28;20488;-68
2022/08/15 06:58:30;;;;;;;41.57;39.67;;;23.60;66.90;;;;;;5050979;28;20956;-68
2022/08/15 07:01:02;;;;;;;51.80;49.20;;;23.60;66.70;;;;;;5047581;28;20577;-69
2022/08/15 07:03:42;;;;;;;51.87;49.27;;;23.70;66.10;;;;;;5044596;28;20503;-66
2022/08/15 07:06:14;;;;;;;42.57;40.60;;;23.60;66.50;;;;;;5037708;28;21039;-67
2022/08/15 07:08:58;;;;;;;46.90;44.67;;;23.50;66.50;;;;;;5050143;28;20507;-67
2022/08/15 07:11:33;;;;;;;39.50;37.77;;;23.50;66.70;;;;;;5046119;28;20483;-69
2022/08/15 07:14:15;;;;;;;51.67;49.27;;;23.50;66.70;;;;;;5040954;28;20459;-69
2022/08/15 07:16:49;;;;;;;51.00;48.57;;;23.50;66.40;;;;;;5031982;28;20548;-67
2022/08/15 07:19:17;;;;;;;40.70;38.70;;;23.60;66.40;;;;;;5039117;28;20455;-67
2022/08/15 07:21:44;;;;;;;37.43;35.50;;;23.70;66.10;;;;;;5048181;28;20508;-70
2022/08/15 07:24:23;;;;;;;39.93;38.07;;;23.80;65.60;;;;;;5046279;28;20568;-71
2022/08/15 07:26:54;;;;;;;41.97;40.03;;;23.90;65.30;;;;;;5046625;28;20997;-71
2022/08/15 07:29:28;;;;;;;46.47;44.37;;;24.10;64.80;;;;;;5034252;28;20537;-70
2022/08/15 07:32:03;;;;;;;45.97;43.83;;;24.20;64.20;;;;;;5039911;28;20578;-72
2022/08/15 07:34:30;;;;;;;40.73;38.77;;;24.40;63.40;;;;;;5045317;28;20456;-73
2022/08/15 07:37:03;;;;;;;41.87;39.47;;;24.40;63.40;;;;;;5045648;28;20489;-68
2022/08/15 07:39:36;;;;;;;45.00;42.90;;;24.60;63.10;;;;;;5047416;28;20645;-68
2022/08/15 07:42:15;;;;;;;37.40;35.70;;;24.70;62.70;;;;;;5046094;28;20984;-68
2022/08/15 07:44:51;;;;;;;46.40;44.13;;;25.00;61.40;;;;;;5035368;28;20539;-68
2022/08/15 07:47:22;;;;;;;54.83;52.20;;;25.20;61.00;;;;;;5044286;28;20459;-68
2022/08/15 07:50:00;;;;;;;54.50;51.90;;;25.40;60.40;;;;;;5033552;28;20560;-68
2022/08/15 07:52:30;;;;;;;42.83;41.00;;;25.40;60.30;;;;;;5044131;28;20931;-68
2022/08/15 07:54:59;;;;;;;55.03;52.30;;;25.40;60.50;;;;;;5046158;28;20537;-68
2022/08/15 07:57:30;;;;;;;50.07;47.70;;;25.40;60.20;;;;;;5047157;28;20513;-68
2022/08/15 08:00:15;;;;;;;40.63;38.80;;;25.50;60.20;;;;;;5030466;28;20525;-68
2022/08/15 08:02:47;;;;;;;46.80;44.60;;;25.50;60.30;;;;;;5044151;28;20959;-68
2022/08/15 08:05:15;;;;;;;46.67;44.57;;;25.60;60.20;;;;;;5039355;28;20587;-68
2022/08/15 08:07:46;;;;;;;46.33;44.23;;;25.70;61.30;;;;;;5048907;28;20474;-68
2022/08/15 08:10:22;;;;;;;38.93;37.13;;;25.50;60.50;;;;;;5043824;28;20614;-69
2022/08/15 08:13:03;;;;;;;46.33;44.17;;;25.60;60.10;;;;;;5049072;28;20598;-68
2022/08/15 08:15:40;;;;;;;39.57;37.87;;;25.30;59.20;;;;;;5035846;28;20530;-68
2022/08/15 08:18:14;;;;;;;46.03;43.93;;;25.10;60.30;;;;;;5049152;28;20506;-66
2022/08/15 08:20:48;;;;;;;43.97;41.97;;;25.30;60.10;;;;;;5041346;28;20475;-66
2022/08/15 08:23:21;;;;;;;50.87;48.37;;;25.30;60.30;;;;;;5048500;28;20530;-66
2022/08/15 08:26:00;;;;;;;37.37;35.57;;;25.50;59.60;;;;;;5039916;28;20552;-66
2022/08/15 08:28:39;;;;;;;39.47;37.70;;;25.70;59.10;;;;;;5029277;28;20475;-66
2022/08/15 08:31:16;;;;;;;46.57;44.30;;;25.80;58.60;;;;;;5040548;28;20510;-66
2022/08/15 08:33:55;;;;;;;39.23;37.53;;;25.90;58.10;;;;;;5050475;28;20481;-66
2022/08/15 08:36:29;;;;;;;50.20;47.70;;;25.90;57.70;;;;;;5048266;28;20520;-67
2022/08/15 08:39:06;;;;;;;40.37;38.47;;;25.70;57.90;;;;;;5042428;28;20495;-69
2022/08/15 08:41:42;;;;;;;41.47;39.57;;;25.50;58.50;;;;;;5046240;28;20485;-66
2022/08/15 08:44:23;;;;;;;51.40;48.80;;;25.50;58.60;;;;;;5047709;28;20447;-67
2022/08/15 08:47:18;;;;;;;44.33;42.43;;;25.60;58.60;;;;;;5044429;28;20825;-66
2022/08/15 08:49:54;;;;;;;44.07;42.00;;;25.70;58.30;;;;;;5030100;28;20467;-66
2022/08/15 08:52:28;;;;;;;44.13;42.23;;;25.70;57.40;;;;;;5045803;28;20475;-66
2022/08/15 08:55:11;;;;;;;43.87;41.83;;;26.00;57.00;;;;;;5037731;28;20514;-68
2022/08/15 08:57:41;;;;;;;39.70;37.97;;;26.10;55.80;;;;;;5041773;28;21085;-68
2022/08/15 09:00:14;;;;;;;43.07;41.07;;;26.20;55.50;;;;;;5037727;28;20910;-68
2022/08/15 09:02:46;;;;;;;45.90;43.70;;;26.40;55.60;;;;;;5042343;28;20541;-69
2022/08/15 09:05:22;;;;;;;34.53;32.93;;;26.50;55.20;;;;;;5045167;28;20488;-69
2022/08/15 09:07:54;;;;;;;39.70;37.80;;;26.50;54.70;;;;;;5041177;28;20506;-69
2022/08/15 09:10:29;;;;;;;41.50;39.50;;;26.40;55.60;;;;;;5033579;28;21029;-68
2022/08/15 09:15:44;;;;;;;50.17;47.77;;;26.70;55.40;;;;;;5036970;28;20485;-68
2022/08/15 09:18:29;;;;;;;36.87;35.27;;;26.90;54.70;;;;;;5048350;28;20471;-68
2022/08/15 09:20:58;;;;;;;37.97;36.27;;;27.00;53.90;;;;;;5033725;28;20478;-68
2022/08/15 09:23:26;;;;;;;42.20;40.40;;;26.70;54.30;;;;;;5048105;28;20533;-69
2022/08/15 09:26:01;;;;;;;52.33;49.77;;;26.50;54.50;;;;;;5045437;28;20486;-73
2022/08/15 09:28:33;;;;;;;50.67;48.37;;;26.50;54.30;;;;;;5044496;28;20546;-69
2022/08/15 09:31:15;;;;;;;53.63;50.93;;;26.60;53.30;;;;;;5042513;28;20475;-69
2022/08/15 09:34:10;;;;;;;40.30;38.60;;;26.60;53.60;;;;;;5043366;28;20502;-68
2022/08/15 09:37:07;;;;;;;45.17;43.27;;;26.70;53.40;;;;;;5039413;28;20459;-69
2022/08/15 09:39:50;;;;;;;49.10;46.90;;;26.90;52.90;;;;;;5033022;28;20586;-66
2022/08/15 09:42:39;;;;;;;39.43;37.57;;;26.80;52.80;;;;;;5046044;28;20539;-67
2022/08/15 09:45:34;;;;;;;49.63;47.33;;;26.70;53.10;;;;;;5040950;28;20575;-67
2022/08/15 09:48:27;;;;;;;40.20;38.40;;;26.40;55.30;;;;;;5044820;28;20490;-67
2022/08/15 09:51:13;;;;;;;47.27;45.03;;;26.20;56.70;;;;;;5041981;28;20992;-67
2022/08/15 09:53:58;;;;;;;42.20;40.47;;;26.10;55.50;;;;;;5045506;28;20557;-67
2022/08/15 09:56:28;;;;;;;46.90;44.80;;;26.10;54.00;;;;;;5038385;28;20451;-68
2022/08/15 09:59:05;;;;;;;39.10;37.30;;;26.20;53.80;;;;;;5038684;28;20486;-67
2022/08/15 10:01:41;;;;;;;55.90;53.33;;;26.50;53.40;;;;;;5043108;28;20502;-67
2022/08/15 10:04:13;;;;;;;54.03;51.47;;;26.90;52.50;;;;;;5041739;28;20945;-67
2022/08/15 10:07:21;;;;;;;52.73;50.40;;;27.40;51.70;;;;;;5047070;28;20822;-67
2022/08/15 10:10:10;;;;;;;48.93;46.67;;;27.30;53.50;;;;;;5040150;28;20471;-67
2022/08/15 10:12:37;;;;;;;43.37;41.47;;;26.70;54.70;;;;;;5048366;28;20554;-68
2022/08/15 10:15:30;;;;;;;52.10;49.70;;;26.70;54.50;;;;;;5044634;28;20462;-67
2022/08/15 10:17:59;;;;;;;52.67;50.17;;;26.60;54.50;;;;;;5034100;28;20571;-67
2022/08/15 10:21:17;;;;;;;41.27;39.37;;;26.80;54.40;;;;;;5047293;28;20487;-66
2022/08/15 10:23:46;;;;;;;39.07;37.07;;;27.00;53.70;;;;;;5045790;28;20451;-67
2022/08/15 10:26:27;;;;;;;47.33;45.03;;;27.40;53.40;;;;;;5042191;28;20463;-66
2022/08/15 10:29:00;;;;;;;42.17;40.27;;;27.80;52.50;;;;;;5042150;28;20474;-67
2022/08/15 10:31:30;;;;;;;53.70;50.90;;;28.00;50.90;;;;;;5044969;28;20579;-66
2022/08/15 10:34:02;;;;;;;42.70;40.90;;;28.20;50.10;;;;;;5039848;28;20569;-66
2022/08/15 10:36:34;;;;;;;41.73;39.83;;;28.40;49.50;;;;;;5040786;28;20467;-66
2022/08/15 10:39:29;;;;;;;47.27;45.03;;;28.70;48.70;;;;;;5042745;28;21020;-67
2022/08/15 10:42:08;;;;;;;48.43;46.10;;;28.70;50.30;;;;;;5041531;28;20562;-67
2022/08/15 10:44:56;;;;;;;40.77;38.77;;;28.40;51.20;;;;;;5042412;28;20463;-67
2022/08/15 10:47:30;;;;;;;54.43;51.73;;;28.30;51.40;;;;;;5043864;28;21011;-67
2022/08/15 10:50:09;;;;;;;47.37;45.10;;;28.00;51.90;;;;;;5050606;28;20546;-67
2022/08/15 10:52:49;;;;;;;48.63;46.07;;;27.90;51.80;;;;;;5051294;28;20536;-68
2022/08/15 10:55:25;;;;;;;55.63;52.80;;;27.80;51.90;;;;;;5050861;28;20451;-67
2022/08/15 10:57:55;;;;;;;43.90;41.80;;;27.90;51.10;;;;;;5038127;28;20516;-67
2022/08/15 11:00:44;;;;;;;43.93;41.87;;;28.00;51.00;;;;;;5044929;28;20471;-67
2022/08/15 11:03:18;;;;;;;48.23;46.00;;;28.30;50.50;;;;;;5032440;28;20544;-67
2022/08/15 11:06:03;;;;;;;57.47;54.70;;;28.50;49.30;;;;;;5036633;28;20547;-67
2022/08/15 11:08:32;;;;;;;38.20;36.33;;;28.50;49.00;;;;;;5039727;28;21118;-67
2022/08/15 11:11:04;;;;;;;54.27;51.27;;;28.60;48.60;;;;;;5040538;28;21984;-66
2022/08/15 11:13:32;;;;;;;39.13;37.33;;;28.40;49.30;;;;;;5043166;28;20558;-70
2022/08/15 11:16:08;;;;;;;45.63;43.63;;;28.20;50.10;;;;;;5043435;28;20456;-67
2022/08/15 11:18:38;;;;;;;39.93;38.13;;;27.90;50.60;;;;;;5040426;28;21035;-67
2022/08/15 11:21:18;;;;;;;39.03;37.33;;;27.30;51.70;;;;;;5046657;28;20475;-66
2022/08/15 11:23:53;;;;;;;48.87;46.67;;;27.00;52.40;;;;;;5044745;28;20830;-67
2022/08/15 11:26:24;;;;;;;51.53;49.20;;;26.90;52.30;;;;;;5037212;28;21260;-67
2022/08/15 11:28:57;;;;;;;45.33;43.10;;;26.70;52.60;;;;;;5033442;28;20543;-68
2022/08/15 11:31:24;;;;;;;42.17;40.37;;;26.80;52.80;;;;;;5039643;28;21025;-67
2022/08/15 11:33:54;;;;;;;50.63;48.13;;;27.20;52.00;;;;;;5035878;28;20482;-66
2022/08/15 11:36:26;;;;;;;55.53;52.83;;;27.40;50.30;;;;;;5051148;28;20546;-67
2022/08/15 11:38:57;;;;;;;47.83;45.43;;;27.80;49.70;;;;;;5039008;28;20492;-66
2022/08/15 11:41:29;;;;;;;48.90;46.50;;;28.00;49.20;;;;;;5047701;28;20479;-66
2022/08/15 11:43:58;;;;;;;41.70;39.80;;;28.10;49.00;;;;;;5044018;28;20509;-67
2022/08/15 11:46:27;;;;;;;48.50;46.10;;;28.30;48.60;;;;;;5032089;28;21045;-67
2022/08/15 11:48:58;;;;;;;45.93;43.83;;;28.40;48.20;;;;;;5039098;28;20862;-67
2022/08/15 11:51:28;;;;;;;46.17;44.10;;;28.50;48.20;;;;;;5048397;28;20479;-67
2022/08/15 11:54:18;;;;;;;51.50;49.03;;;28.70;48.10;;;;;;5045351;28;20510;-67
2022/08/15 11:56:54;;;;;;;42.10;40.13;;;28.50;48.40;;;;;;5037378;28;22416;-67
2022/08/15 11:59:24;;;;;;;40.27;38.53;;;28.30;49.00;;;;;;5037696;28;20451;-67
2022/08/15 12:02:05;;;;;;;51.13;48.90;;;28.30;49.10;;;;;;5044801;28;20565;-67
2022/08/15 12:04:34;;;;;;;51.23;49.00;;;28.20;49.30;;;;;;5037878;28;20483;-70
2022/08/15 12:07:11;;;;;;;46.30;44.10;;;28.30;49.40;;;;;;5044073;28;20470;-71
2022/08/15 12:09:40;;;;;;;47.30;45.10;;;28.40;48.90;;;;;;5036968;28;20521;-71
2022/08/15 12:12:25;;;;;;;57.00;54.40;;;28.30;48.60;;;;;;5041616;28;20622;-71
2022/08/15 12:14:58;;;;;;;41.83;40.13;;;28.20;48.00;;;;;;5044267;28;20498;-71
2022/08/15 12:17:30;;;;;;;57.47;54.67;;;28.10;48.80;;;;;;5035177;28;20460;-70
2022/08/15 12:19:57;;;;;;;52.27;49.80;;;28.10;48.70;;;;;;5030690;28;20498;-68
2022/08/15 12:22:31;;;;;;;52.33;49.97;;;28.00;48.60;;;;;;5044066;28;20464;-68
2022/08/15 12:25:01;;;;;;;41.33;39.63;;;27.90;48.70;;;;;;5034949;28;20869;-67
2022/08/15 12:27:28;;;;;;;46.00;43.80;;;28.00;48.20;;;;;;5035211;28;21033;-68
2022/08/15 12:29:55;;;;;;;68.03;65.23;;;28.20;47.90;;;;;;5035831;28;20460;-68
2022/08/15 12:32:23;;;;;;;41.80;40.00;;;28.40;47.60;;;;;;5033727;28;20452;-68
2022/08/15 12:34:53;;;;;;;57.83;54.83;;;28.80;47.70;;;;;;5034501;28;20496;-68
2022/08/15 12:37:23;;;;;;;52.00;49.60;;;29.30;46.80;;;;;;5029679;28;20456;-69
2022/08/15 12:39:53;;;;;;;51.13;48.80;;;29.70;45.50;;;;;;5036968;28;20838;-68
2022/08/15 12:42:25;;;;;;;40.90;39.10;;;29.80;45.30;;;;;;5036026;28;20528;-68
2022/08/15 12:44:55;;;;;;;42.63;40.73;;;30.10;45.60;;;;;;5033425;28;20872;-68
2022/08/15 12:47:24;;;;;;;58.67;55.87;;;30.40;45.10;;;;;;5036764;28;20971;-68
2022/08/15 12:49:51;;;;;;;64.50;61.60;;;30.60;44.50;;;;;;5039279;28;20455;-68
2022/08/15 12:52:20;;;;;;;43.90;41.90;;;30.80;43.30;;;;;;5039712;28;20588;-68
2022/08/15 12:54:47;;;;;;;42.70;40.70;;;30.50;44.30;;;;;;5035673;28;20487;-68
2022/08/15 12:57:15;;;;;;;40.50;38.67;;;29.80;46.10;;;;;;5038027;28;20897;-69
2022/08/15 12:59:43;;;;;;;42.77;40.67;;;29.50;46.40;;;;;;5035690;28;20547;-67